Citrus Ridge, Florida
Current Conditions -  °F | °C
As of 5:53 AM on Thursday 27 Nov 2014 (Local Time) from KVRB Reporting Station
Clear Clear  
Wind Chill: 42°   Ceiling: Unl
Heat Index: 46°   Visibility: 10mi
Dew Point: 44°   Wind: 8mph
Humidity: 93%   Direction: 330°NNW
Pressure: 30.25"   Gusts: NA
Location:  27.5878°N, 80.5183°W
Report Text: KVRB 271053Z AUTO 33007KT 10SM CLR 08/07 A3025 RMK AO2 SLP241 T00780067
Loading
Personal Weather Stations






























Interactive Weather Map New forecast layout! Learn more

10-Day Weather Forecast

Advertisements
Track Severe Weather on mobile